Time;durP1;ratioP1;P1;durP2;ratioP2;P2;SDS_P1;SDS_P2;PMS_P1;PMS_P2;Temp;Humidity;BMP_temperature;BMP_pressure;BME280_temperature;BME280_humidity;BME280_pressure;Samples;Min_cycle;Max_cycle;Signal;HPM_P1;HPM_P2
2022/07/25 07:28:46;;;;;;;;;1.00;1.00;;;;;-147.49;100.00;63730.56;6353349;22;28868;-90
2022/07/25 08:13:32;;;;;;;;;2.00;2.00;;;;;-147.49;100.00;58502.75;6257343;22;8744;-92
2022/07/25 08:16:02;;;;;;;;;4.75;3.75;;;;;-147.49;100.00;58502.75;6232456;22;8769;-88
2022/07/25 08:18:28;;;;;;;;;3.00;3.00;;;;;-147.49;100.00;58502.75;6342848;22;8779;-89
2022/07/25 08:20:54;;;;;;;;;4.00;4.00;;;;;-147.49;100.00;58502.75;6357918;22;8778;-89
2022/07/25 08:23:21;;;;;;;;;2.00;2.00;;;;;-147.49;100.00;58502.75;6386769;22;8854;-88
2022/07/25 08:25:47;;;;;;;;;2.50;2.50;;;;;-147.49;100.00;58502.75;6386144;22;8754;-88
2022/07/25 08:28:13;;;;;;;;;1.75;1.75;;;;;-147.49;100.00;58502.75;6385751;22;8692;-88
2022/07/25 08:30:40;;;;;;;;;2.25;2.25;;;;;-147.49;100.00;58502.75;6356652;22;8820;-88
2022/07/25 08:33:12;;;;;;;;;2.00;2.00;;;;;-147.49;100.00;58502.75;6384467;22;8766;-88
2022/07/25 08:35:38;;;;;;;;;2.00;2.00;;;;;-147.49;100.00;58502.75;6358985;22;9685;-88
2022/07/25 08:38:05;;;;;;;;;2.25;2.25;;;;;-147.49;100.00;58502.75;6357511;22;8744;-89
2022/07/25 08:40:32;;;;;;;;;2.75;2.75;;;;;-147.49;100.00;58502.75;6383092;22;8864;-89
2022/07/25 08:42:58;;;;;;;;;1.00;1.00;;;;;-147.49;100.00;58502.75;6386830;22;8724;-88
2022/07/25 08:45:24;;;;;;;;;2.33;2.33;;;;;-147.49;100.00;58502.75;6387034;22;8750;-89
2022/07/25 08:47:54;;;;;;;;;2.00;2.00;;;;;-147.49;100.00;58502.75;6385450;22;8752;-89
2022/07/25 08:50:22;;;;;;;;;2.00;2.00;;;;;-147.49;100.00;58502.75;6386388;22;9699;-89
2022/07/25 08:52:49;;;;;;;;;1.50;1.50;;;;;-147.49;100.00;58502.75;6386967;22;8728;-89
2022/07/25 08:55:20;;;;;;;;;2.25;2.25;;;;;-147.49;100.00;58502.75;6386184;22;8680;-89
2022/07/25 08:57:47;;;;;;;;;2.00;2.00;;;;;-147.49;100.00;58502.75;6385990;22;8739;-88
2022/07/25 09:00:22;;;;;;;;;2.25;2.25;;;;;-147.49;100.00;58502.75;6386994;22;9636;-88
2022/07/25 09:02:56;;;;;;;;;1.75;1.75;;;;;-147.49;100.00;58502.75;6385790;22;8701;-89
2022/07/25 09:05:23;;;;;;;;;2.00;2.00;;;;;-147.49;100.00;58502.75;6384715;22;8724;-88
2022/07/25 09:07:49;;;;;;;;;1.75;1.75;;;;;-147.49;100.00;58502.75;6384789;22;8748;-89
2022/07/25 09:10:26;;;;;;;;;2.00;2.00;;;;;-147.49;100.00;58502.75;6386546;22;8852;-88
2022/07/25 09:13:12;;;;;;;;;3.00;1.75;;;;;-147.49;100.00;58502.75;6386368;22;8720;-88
2022/07/25 09:15:47;;;;;;;;;3.00;3.00;;;;;-147.49;100.00;58502.75;6387113;22;8704;-88
2022/07/25 09:18:15;;;;;;;;;1.25;1.25;;;;;-147.49;100.00;58502.75;6357263;22;8841;-88
2022/07/25 09:20:47;;;;;;;;;2.25;2.25;;;;;-147.49;100.00;58502.75;6386959;22;8685;-89
2022/07/25 09:23:35;;;;;;;;;2.00;2.00;;;;;-147.49;100.00;58502.75;6387335;22;8736;-90
2022/07/25 09:26:05;;;;;;;;;3.00;1.25;;;;;-147.49;100.00;58502.75;6384345;22;8740;-90
2022/07/25 09:28:32;;;;;;;;;2.00;2.00;;;;;-147.49;100.00;58502.75;6385376;22;8751;-90
2022/07/25 09:30:59;;;;;;;;;3.50;3.25;;;;;-147.49;100.00;58502.75;6384313;22;8700;-88
2022/07/25 09:33:26;;;;;;;;;2.00;2.00;;;;;-147.49;100.00;58502.75;6384934;22;8720;-90
2022/07/25 09:35:54;;;;;;;;;2.75;2.75;;;;;-147.49;100.00;58502.75;6386612;22;8746;-90
2022/07/25 09:38:21;;;;;;;;;2.25;2.25;;;;;-147.49;100.00;58502.75;6386885;22;8754;-90
2022/07/25 09:40:54;;;;;;;;;2.75;2.75;;;;;-147.49;100.00;58502.75;6387263;22;8752;-90
2022/07/25 09:43:21;;;;;;;;;2.50;1.25;;;;;-147.49;100.00;58502.75;6386144;22;8829;-90
2022/07/25 09:45:51;;;;;;;;;1.00;1.00;;;;;-147.49;100.00;58502.75;6385638;22;8785;-90
2022/07/25 09:48:18;;;;;;;;;5.00;3.00;;;;;-147.49;100.00;58502.75;6358900;22;8693;-89
2022/07/25 09:50:44;;;;;;;;;3.00;3.00;;;;;-147.49;100.00;58502.75;6387192;22;8732;-90
2022/07/25 09:53:10;;;;;;;;;1.00;1.00;;;;;-147.49;100.00;58502.75;6386829;22;8813;-90
2022/07/25 09:55:36;;;;;;;;;2.00;2.00;;;;;-147.49;100.00;58502.75;6386917;22;8724;-90
2022/07/25 09:58:02;;;;;;;;;2.00;2.00;;;;;-147.49;100.00;58502.75;6358735;22;8869;-89
2022/07/25 10:00:28;;;;;;;;;2.00;2.00;;;;;-147.49;100.00;58502.75;6386753;22;8766;-90
2022/07/25 10:02:54;;;;;;;;;2.25;1.75;;;;;-147.49;100.00;58502.75;6386853;22;8740;-90
2022/07/25 10:05:22;;;;;;;;;3.00;3.00;;;;;-147.49;100.00;58502.75;6386226;22;8755;-90
2022/07/25 10:07:54;;;;;;;;;2.25;2.25;;;;;-147.49;100.00;58502.75;6387154;22;8748;-89
2022/07/25 10:10:28;;;;;;;;;1.75;1.75;;;;;-147.49;100.00;58502.75;6386908;22;8736;-90
2022/07/25 10:13:02;;;;;;;;;1.00;1.00;;;;;-147.49;100.00;58502.75;6387136;22;9609;-90
2022/07/25 10:15:39;;;;;;;;;1.25;1.25;;;;;-147.49;100.00;58502.75;6357396;22;8740;-90
2022/07/25 10:18:07;;;;;;;;;2.00;2.00;;;;;-147.49;100.00;58502.75;6386911;22;8759;-90
2022/07/25 10:20:33;;;;;;;;;2.25;2.25;;;;;-147.49;100.00;58502.75;6386671;22;8724;-90
2022/07/25 10:22:59;;;;;;;;;2.00;2.00;;;;;-147.49;100.00;58502.75;6358683;22;8736;-90
2022/07/25 10:25:24;;;;;;;;;1.33;1.33;;;;;-147.49;100.00;58502.75;6386865;22;8752;-89
2022/07/25 10:27:58;;;;;;;;;1.00;1.00;;;;;-147.49;100.00;58502.75;6387023;22;9498;-89
2022/07/25 10:30:35;;;;;;;;;2.00;2.00;;;;;-147.49;100.00;58502.75;6385897;22;8736;-90
2022/07/25 10:33:03;;;;;;;;;2.00;2.00;;;;;-147.49;100.00;58502.75;6386516;22;8724;-90
2022/07/25 10:35:30;;;;;;;;;2.50;2.50;;;;;-147.49;100.00;58502.75;6386185;22;8724;-90
2022/07/25 10:37:57;;;;;;;;;0.25;0.25;;;;;-147.49;100.00;58502.75;6386485;22;8793;-90
2022/07/25 10:40:32;;;;;;;;;3.25;3.25;;;;;-147.49;100.00;58502.75;6385433;22;8759;-91
2022/07/25 10:43:31;;;;;;;;;2.00;2.00;;;;;-147.49;100.00;58502.75;6357837;22;8752;-94
2022/07/25 10:45:58;;;;;;;;;2.00;2.00;;;;;-147.49;100.00;58502.75;6358028;22;8747;-90
2022/07/25 10:48:29;;;;;;;;;1.75;1.75;;;;;-147.49;100.00;58502.75;6359341;22;8858;-89
2022/07/25 10:51:03;;;;;;;;;2.25;2.25;;;;;-147.49;100.00;58502.75;6358394;22;8763;-88
2022/07/25 10:53:33;;;;;;;;;1.00;1.00;;;;;-147.49;100.00;58502.75;6387888;22;8732;-89
2022/07/25 10:56:05;;;;;;;;;2.75;2.25;;;;;-147.49;100.00;58502.75;6388112;22;8712;-89
2022/07/25 10:58:50;;;;;;;;;1.25;1.25;;;;;-147.49;100.00;58502.75;6388314;22;8744;-89
2022/07/25 11:01:21;;;;;;;;;2.50;1.75;;;;;-147.49;100.00;58502.75;6357983;22;9577;-89
2022/07/25 11:03:48;;;;;;;;;1.00;1.00;;;;;-147.49;100.00;58502.75;6387803;22;8740;-89
2022/07/25 11:06:14;;;;;;;;;1.25;1.25;;;;;-147.49;100.00;58502.75;6359454;22;8825;-89
2022/07/25 11:08:43;;;;;;;;;1.25;1.25;;;;;-147.49;100.00;58502.75;6387115;22;8797;-89
2022/07/25 11:11:12;;;;;;;;;1.50;1.50;;;;;-147.49;100.00;58502.75;6386678;22;8728;-90
2022/07/25 11:13:40;;;;;;;;;1.00;1.00;;;;;-147.49;100.00;58502.75;6359614;22;8998;-89
2022/07/25 11:16:25;;;;;;;;;0.75;0.75;;;;;-147.49;100.00;58502.75;6355254;22;8870;-93
2022/07/25 11:19:00;;;;;;;;;1.00;1.00;;;;;-147.49;100.00;58502.75;6356181;22;8739;-90
2022/07/25 11:21:25;;;;;;;;;1.00;1.00;;;;;-147.49;100.00;58502.75;6383722;22;8728;-90
2022/07/25 11:28:09;;;;;;;;;;;;;;;;;;;;;
2022/07/25 11:31:17;;;;;;;;;2.00;1.00;;;;;-147.49;100.00;58502.75;6173066;23;35622;-91
2022/07/25 11:34:06;;;;;;;;;1.50;1.50;;;;;-147.49;100.00;58502.75;6225710;23;8770;-94
2022/07/25 11:36:34;;;;;;;;;1.00;1.00;;;;;-147.49;100.00;58502.75;6202338;23;8747;-93
2022/07/25 11:39:57;;;;;;;;;1.00;1.00;;;;;-147.49;100.00;58502.75;6376497;22;9665;-93
2022/07/25 11:45:57;;;;;;;;;0.00;0.00;;;;;-147.49;100.00;58502.75;6285576;22;8758;-92
2022/07/25 11:48:38;;;;;;;;;0.50;0.00;;;;;-147.49;100.00;58502.75;6384114;22;8787;-92
2022/07/25 11:51:20;;;;;;;;;0.75;0.25;;;;;-147.49;100.00;58502.75;6389541;22;8682;-93
2022/07/25 11:54:11;;;;;;;;;0.75;0.75;;;;;-147.49;100.00;58502.75;6417222;22;8682;-93
2022/07/25 11:57:00;;;;;;;;;0.25;0.25;;;;;-147.49;100.00;58502.75;6371383;22;8730;-91
2022/07/25 11:59:26;;;;;;;;;0.00;0.00;;;;;-147.49;100.00;58502.75;6416296;22;8770;-89
2022/07/25 12:05:09;;;;;;;;;1.00;1.00;;;;;-147.49;100.00;58502.75;6226516;23;8787;-91
2022/07/25 12:08:17;;;;;;;;;0.00;0.00;;;;;-147.49;100.00;58502.75;6319155;22;8791;-93
2022/07/25 12:14:14;;;;;;;;;;;;;;;;;;;;;
2022/07/25 12:16:49;;;;;;;;;1.00;1.00;;;;;-147.49;100.00;58502.75;6381934;22;35979;-92
2022/07/25 12:19:34;;;;;;;;;0.00;0.00;;;;;-147.49;100.00;58502.75;6385767;22;8709;-93
2022/07/25 12:25:37;;;;;;;;;1.00;1.00;;;;;-147.49;100.00;58502.75;6321836;22;8667;-92
2022/07/25 12:28:04;;;;;;;;;0.00;0.00;;;;;-147.49;100.00;58502.75;6322281;22;8750;-90
2022/07/25 12:30:30;;;;;;;;;0.50;0.50;;;;;-147.49;100.00;58502.75;6321517;22;8749;-90
2022/07/25 12:32:57;;;;;;;;;0.00;0.00;;;;;-147.49;100.00;58502.75;6288595;22;8728;-90
2022/07/25 12:35:23;;;;;;;;;5.75;5.75;;;;;-147.49;100.00;58502.75;6289132;22;8748;-90
2022/07/25 12:37:49;;;;;;;;;2.00;1.00;;;;;-147.49;100.00;58502.75;6290734;22;9507;-90
2022/07/25 12:41:21;;;;;;;;;;;;;;;;;;;;;
2022/07/25 12:43:57;;;;;;;;;;;;;;;;;;;;;
2022/07/25 12:50:56;;;;;;;;;;;;;;;;;;;;;
2022/07/25 12:53:43;;;;;;;;;1.50;1.00;;;;;-147.49;100.00;58502.75;6173649;23;8749;-93
2022/07/25 12:56:09;;;;;;;;;0.00;0.00;;;;;-147.49;100.00;58502.75;6195227;23;8831;-88
2022/07/25 12:58:35;;;;;;;;;0.00;0.00;;;;;-147.49;100.00;58502.75;6195298;23;8753;-90
2022/07/25 13:01:01;;;;;;;;;0.00;0.00;;;;;-147.49;100.00;58502.75;6241766;22;8681;-92
2022/07/25 13:03:28;;;;;;;;;0.00;0.00;;;;;-147.49;100.00;58502.75;6262651;22;8780;-90
2022/07/25 13:05:56;;;;;;;;;0.00;0.00;;;;;-147.49;100.00;58502.75;6261741;22;8779;-91
2022/07/25 13:08:36;;;;;;;;;0.00;0.00;;;;;-147.49;100.00;58502.75;6289370;22;8839;-93
2022/07/25 13:11:41;;;;;;;;;0.00;0.00;;;;;-147.49;100.00;58502.75;6291065;22;8729;-92
2022/07/25 13:14:06;;;;;;;;;0.00;0.00;;;;;-147.49;100.00;58502.75;6286551;22;8736;-93
2022/07/25 13:17:10;;;;;;;;;0.00;0.00;;;;;-147.49;100.00;58502.75;6290875;22;8744;-94
2022/07/25 13:19:38;;;;;;;;;0.00;0.00;;;;;-147.49;100.00;58502.75;6289129;22;8681;-92
2022/07/25 13:24:43;;;;;;;;;0.00;0.00;;;;;-147.49;100.00;58502.75;6391975;22;8778;-92
2022/07/25 13:27:11;;;;;;;;;0.00;0.00;;;;;-147.49;100.00;58502.75;6418285;22;8851;-90
2022/07/25 13:35:59;;;;;;;;;0.00;0.00;;;;;-147.49;100.00;58502.75;6355810;22;8925;-95
2022/07/25 13:38:24;;;;;;;;;0.00;0.00;;;;;-147.49;100.00;58502.75;6417176;22;8714;-90
2022/07/25 13:41:05;;;;;;;;;0.00;0.00;;;;;-147.49;100.00;58502.75;6387878;22;8761;-94
2022/07/25 13:44:09;;;;;;;;;0.00;0.00;;;;;-147.49;100.00;58502.75;6418823;22;8732;-92
2022/07/25 13:46:37;;;;;;;;;0.00;0.00;;;;;-147.49;100.00;58502.75;6417959;22;8748;-90
2022/07/25 13:55:51;;;;;;;;;0.00;0.00;;;;;-147.49;100.00;58502.75;6418147;22;8824;-91
